Time;durP1;ratioP1;P1;durP2;ratioP2;P2;SDS_P1;SDS_P2;PMS_P1;PMS_P2;Temp;Humidity;BMP_temperature;BMP_pressure;BME280_temperature;BME280_humidity;BME280_pressure;Samples;Min_cycle;Max_cycle;Signal;HPM_P1;HPM_P2
2023/04/04 00:01:53;;;;;;;4.45;3.75;;;;;;;2.94;56.51;99136.31;7390780;19;20580;-71
2023/04/04 00:04:20;;;;;;;2.53;1.98;;;;;;;2.92;56.86;99126.88;7387552;19;19923;-71
2023/04/04 00:06:47;;;;;;;3.63;3.40;;;;;;;2.92;56.86;99127.72;7392692;19;19929;-71
2023/04/04 00:09:14;;;;;;;4.72;2.95;;;;;;;2.86;57.17;99115.00;7389288;19;19914;-71
2023/04/04 00:11:41;;;;;;;5.10;2.90;;;;;;;2.90;56.46;99121.75;7385852;19;19919;-71
2023/04/04 00:14:08;;;;;;;4.07;2.85;;;;;;;2.92;56.84;99119.03;7389232;19;19918;-71
2023/04/04 00:16:35;;;;;;;2.42;2.10;;;;;;;2.90;56.77;99116.53;7388955;19;19952;-71
2023/04/04 00:19:02;;;;;;;2.35;2.22;;;;;;;2.89;57.14;99120.06;7386981;19;20373;-71
2023/04/04 00:21:29;;;;;;;3.03;2.83;;;;;;;2.75;56.80;99117.41;7391597;19;19915;-71
2023/04/04 00:23:56;;;;;;;2.47;2.25;;;;;;;2.77;56.81;99115.56;7389452;19;19918;-71
2023/04/04 00:26:25;;;;;;;3.30;2.53;;;;;;;2.70;56.92;99119.44;7383887;19;20533;-71
2023/04/04 00:28:52;;;;;;;2.85;2.47;;;;;;;2.64;57.76;99118.88;7391499;19;20016;-71
2023/04/04 00:31:19;;;;;;;5.35;3.42;;;;;;;2.58;57.53;99114.00;7384293;19;19919;-71
2023/04/04 00:33:47;;;;;;;3.58;3.33;;;;;;;2.64;57.58;99108.41;7384886;19;19918;-71
2023/04/04 00:36:13;;;;;;;2.65;2.28;;;;;;;2.58;58.16;99108.78;7385909;19;19922;-72
2023/04/04 00:38:40;;;;;;;2.92;2.30;;;;;;;2.54;57.24;99114.25;7389198;19;19922;-72
2023/04/04 00:41:07;;;;;;;2.50;1.95;;;;;;;2.53;57.70;99109.97;7387339;19;19923;-71
2023/04/04 00:43:35;;;;;;;2.83;2.63;;;;;;;2.45;57.94;99109.53;7388239;19;19923;-71
2023/04/04 00:46:01;;;;;;;1.65;1.50;;;;;;;2.48;58.90;99106.78;7391120;19;19922;-71
2023/04/04 00:48:28;;;;;;;3.95;2.83;;;;;;;2.45;59.75;99107.78;7384683;19;19918;-71
2023/04/04 00:50:55;;;;;;;2.42;2.13;;;;;;;2.38;59.73;99104.66;7390361;19;19929;-71
2023/04/04 00:53:22;;;;;;;2.60;2.40;;;;;;;2.34;59.36;99102.31;7384297;19;19929;-71
2023/04/04 00:55:49;;;;;;;3.42;2.30;;;;;;;2.31;59.96;99105.94;7386954;19;19929;-71
2023/04/04 00:58:17;;;;;;;3.63;3.33;;;;;;;2.17;58.46;99104.09;7388254;19;19982;-71
2023/04/04 01:00:43;;;;;;;4.47;3.88;;;;;;;2.23;59.81;99086.41;7386961;19;19918;-71
2023/04/04 01:03:11;;;;;;;3.47;2.95;;;;;;;2.15;59.05;99090.28;7384296;19;19923;-71
2023/04/04 01:05:39;;;;;;;2.53;2.33;;;;;;;2.14;60.06;99099.06;7384145;19;20357;-71
2023/04/04 01:08:06;;;;;;;2.92;2.72;;;;;;;2.07;59.81;99097.69;7385755;19;19997;-71
2023/04/04 01:10:34;;;;;;;6.05;3.30;;;;;;;2.07;59.91;99087.25;7384529;19;19922;-71
2023/04/04 01:13:01;;;;;;;2.25;2.05;;;;;;;2.01;59.20;99092.00;7387134;19;19915;-71
2023/04/04 01:15:28;;;;;;;5.47;2.90;;;;;;;1.96;59.97;99090.47;7387243;19;19925;-71
2023/04/04 01:18:01;;;;;;;2.95;2.75;;;;;;;2.12;60.60;99094.84;7390228;19;19922;-71
2023/04/04 01:20:31;;;;;;;4.13;2.80;;;;;;;2.14;59.96;99095.59;7383899;19;19921;-71
2023/04/04 01:23:00;;;;;;;4.55;2.63;;;;;;;2.12;60.45;99094.84;7387151;19;19931;-71
2023/04/04 01:25:31;;;;;;;2.75;2.47;;;;;;;2.13;59.78;99086.94;7383374;19;19918;-71
2023/04/04 01:28:02;;;;;;;2.63;2.42;;;;;;;2.08;59.97;99091.56;7388730;19;19915;-71
2023/04/04 01:30:31;;;;;;;3.58;2.90;;;;;;;2.05;60.05;99094.31;7386955;19;19922;-71
2023/04/04 01:33:20;;;;;;;2.80;2.53;;;;;;;2.04;60.50;99087.44;7388396;19;19939;-71
2023/04/04 01:36:17;;;;;;;2.47;2.28;;;;;;;2.00;60.76;99087.69;7386275;19;19947;-71
2023/04/04 01:38:58;;;;;;;3.42;3.20;;;;;;;1.99;61.29;99094.66;7387274;19;20530;-71
2023/04/04 01:41:28;;;;;;;5.13;4.55;;;;;;;1.94;60.94;99083.63;7380850;19;20428;-71
2023/04/04 01:43:57;;;;;;;;;;;;;;;1.90;60.80;99084.75;7389774;19;19922;-71
2023/04/04 01:46:25;;;;;;;4.30;2.92;;;;;;;1.77;60.07;99086.34;7386142;19;19945;-71
2023/04/04 01:48:52;;;;;;;3.08;2.53;;;;;;;1.73;60.48;99085.66;7388965;19;19922;-71
2023/04/04 01:51:24;;;;;;;3.17;2.90;;;;;;;1.79;61.25;99087.06;7383820;19;19919;-71
2023/04/04 01:53:51;;;;;;;6.22;5.85;;;;;;;1.78;61.34;99088.84;7384707;19;20259;-71
2023/04/04 01:56:18;;;;;;;2.75;2.55;;;;;;;1.72;61.60;99087.41;7383947;19;19925;-71
2023/04/04 01:58:46;;;;;;;3.90;3.65;;;;;;;1.71;61.66;99085.75;7386699;19;20287;-71
2023/04/04 02:01:13;;;;;;;4.78;4.40;;;;;;;1.71;62.34;99083.13;7387447;19;20318;-71
2023/04/04 02:03:40;;;;;;;3.15;2.85;;;;;;;1.70;62.14;99089.25;7386199;19;19919;-71
2023/04/04 02:06:06;;;;;;;3.50;3.30;;;;;;;1.65;62.41;99086.06;7390028;19;19926;-71
2023/04/04 02:08:33;;;;;;;2.72;2.47;;;;;;;1.57;61.06;99087.41;7385283;19;19930;-70
2023/04/04 02:11:01;;;;;;;4.38;3.97;;;;;;;1.60;62.09;99084.63;7384040;19;19922;-71
2023/04/04 02:13:27;;;;;;;4.82;2.35;;;;;;;1.56;62.16;99083.13;7377515;19;20348;-70
2023/04/04 02:15:57;;;;;;;4.88;4.15;;;;;;;1.58;62.52;99087.31;7387338;19;20625;-71
2023/04/04 02:18:24;;;;;;;2.80;2.60;;;;;;;1.57;62.98;99085.63;7385995;19;19939;-70
2023/04/04 02:20:56;;;;;;;5.30;2.88;;;;;;;1.57;63.75;99090.84;7388999;19;19947;-70
2023/04/04 02:23:23;;;;;;;3.08;2.78;;;;;;;1.55;63.20;99079.63;7380728;19;19921;-71
2023/04/04 02:25:50;;;;;;;3.47;2.88;;;;;;;1.50;63.04;99081.66;7383693;19;20366;-71
2023/04/04 02:28:17;;;;;;;3.33;3.13;;;;;;;1.48;63.40;99086.13;7385673;19;19970;-71
2023/04/04 02:30:46;;;;;;;2.67;2.47;;;;;;;1.48;63.41;99075.69;7383454;19;20339;-71
2023/04/04 02:33:13;;;;;;;3.22;3.03;;;;;;;1.48;63.78;99088.72;7381763;19;19943;-71
2023/04/04 02:35:40;;;;;;;4.45;2.60;;;;;;;1.45;63.30;99083.66;7387856;19;20411;-71
2023/04/04 02:38:07;;;;;;;2.97;2.78;;;;;;;1.40;63.29;99083.91;7387643;19;19947;-71
2023/04/04 02:40:40;;;;;;;3.25;3.05;;;;;;;1.38;63.16;99090.13;7382700;19;19922;-71
2023/04/04 02:43:08;;;;;;;3.08;2.75;;;;;;;1.41;63.16;99089.97;7385682;19;19922;-71
2023/04/04 02:45:35;;;;;;;2.95;2.70;;;;;;;1.37;63.27;99086.69;7388617;19;20353;-71
2023/04/04 02:48:28;;;;;;;2.90;2.70;;;;;;;1.40;63.46;99093.53;7382411;19;19953;-71
2023/04/04 02:50:59;;;;;;;2.75;2.22;;;;;;;1.38;63.22;99083.16;7385762;19;19915;-71
2023/04/04 02:53:27;;;;;;;4.63;3.05;;;;;;;1.33;62.79;99092.16;7380251;19;19930;-71
2023/04/04 02:55:58;;;;;;;3.50;3.20;;;;;;;1.28;62.88;99082.78;7381474;19;19956;-71
2023/04/04 02:58:25;;;;;;;4.03;3.40;;;;;;;1.21;63.00;99081.44;7381764;19;19924;-70
2023/04/04 03:00:55;;;;;;;3.25;2.58;;;;;;;1.21;64.37;99081.44;7385532;19;19914;-71
2023/04/04 03:03:26;;;;;;;3.65;2.63;;;;;;;1.21;64.12;99078.84;7379429;19;19937;-71
2023/04/04 03:05:53;;;;;;;4.50;3.50;;;;;;;1.23;64.70;99079.56;7387570;19;19915;-71
2023/04/04 03:08:21;;;;;;;4.00;3.08;;;;;;;1.12;64.01;99076.69;7385615;19;19918;-71
2023/04/04 03:10:48;;;;;;;3.03;2.67;;;;;;;1.05;64.64;99084.00;7381822;19;19918;-70
2023/04/04 03:13:15;;;;;;;4.43;3.25;;;;;;;1.00;64.47;99078.16;7379907;19;19915;-71
2023/04/04 03:15:44;;;;;;;2.22;2.05;;;;;;;0.96;64.89;99078.41;7382820;19;19937;-71
2023/04/04 03:18:14;;;;;;;3.00;2.70;;;;;;;1.03;65.47;99087.59;7381072;19;19926;-70
2023/04/04 03:20:41;;;;;;;4.32;4.00;;;;;;;0.96;64.99;99075.78;7385627;19;19922;-70
2023/04/04 03:23:08;;;;;;;2.85;2.65;;;;;;;1.03;65.77;99072.81;7383223;19;19922;-70
2023/04/04 03:25:35;;;;;;;3.20;2.90;;;;;;;1.01;65.71;99071.19;7389236;19;20545;-71
2023/04/04 03:28:13;;;;;;;5.18;3.67;;;;;;;0.90;65.79;99070.91;7394025;19;19946;-70
2023/04/04 03:30:40;;;;;;;5.82;5.43;;;;;;;0.88;65.14;99073.56;7392077;19;20276;-71
2023/04/04 03:33:08;;;;;;;3.50;3.20;;;;;;;0.89;65.29;99075.25;7387774;19;19914;-71
2023/04/04 03:35:40;;;;;;;2.97;2.78;;;;;;;0.92;65.57;99075.09;7393671;19;19918;-71
2023/04/04 03:38:08;;;;;;;3.97;3.58;;;;;;;0.94;65.39;99068.03;7393776;19;19914;-70
2023/04/04 03:40:35;;;;;;;2.50;2.30;;;;;;;0.93;65.32;99073.34;7386146;19;19922;-71
2023/04/04 03:43:08;;;;;;;5.07;4.78;;;;;;;0.92;65.80;99064.66;7388101;19;19990;-71
2023/04/04 03:45:35;;;;;;;3.80;3.13;;;;;;;0.92;65.61;99075.09;7388984;19;19987;-71
2023/04/04 03:48:02;;;;;;;4.18;3.80;;;;;;;0.91;66.58;99069.97;7389161;19;20248;-71
2023/04/04 03:50:30;;;;;;;4.43;2.83;;;;;;;0.90;66.15;99070.91;7387134;19;20370;-71
2023/04/04 03:52:57;;;;;;;4.30;3.95;;;;;;;0.93;66.39;99073.34;7389660;19;19918;-71
2023/04/04 03:55:25;;;;;;;3.15;2.90;;;;;;;0.93;66.24;99075.97;7386730;19;19922;-71
2023/04/04 03:57:57;;;;;;;5.22;3.38;;;;;;;0.90;66.69;99078.72;7391803;19;19918;-71
2023/04/04 04:00:25;;;;;;;3.35;3.15;;;;;;;0.84;66.49;99074.63;7388799;19;19925;-71
2023/04/04 04:02:51;;;;;;;2.85;2.58;;;;;;;0.84;66.11;99070.28;7390320;19;20428;-71
2023/04/04 04:05:18;;;;;;;5.70;4.80;;;;;;;0.85;65.98;99071.97;7387586;19;19914;-71
2023/04/04 04:07:45;;;;;;;5.15;4.60;;;;;;;0.86;65.92;99073.63;7393334;19;19922;-71
2023/04/04 04:10:13;;;;;;;3.20;2.90;;;;;;;0.84;65.70;99069.44;7390657;19;19921;-71
2023/04/04 04:12:40;;;;;;;4.10;3.70;;;;;;;0.82;65.82;99066.91;7388004;19;20020;-71
2023/04/04 04:15:07;;;;;;;3.63;3.33;;;;;;;0.82;66.03;99077.34;7392405;19;19944;-71
2023/04/04 04:17:39;;;;;;;4.40;2.83;;;;;;;0.78;65.62;99072.34;7388615;19;19998;-71
2023/04/04 04:20:08;;;;;;;3.15;2.83;;;;;;;0.79;65.98;99074.91;7388112;19;19918;-71
2023/04/04 04:22:45;;;;;;;3.13;2.83;;;;;;;0.77;65.76;99079.34;7386023;19;19945;-71
2023/04/04 04:25:13;;;;;;;4.15;3.35;;;;;;;0.70;65.45;99070.13;7392456;19;19926;-71
2023/04/04 04:27:43;;;;;;;4.47;3.45;;;;;;;0.74;66.03;99081.22;7388205;19;19930;-71
2023/04/04 04:30:12;;;;;;;3.55;3.03;;;;;;;0.68;65.34;99076.34;7390378;19;19921;-71
2023/04/04 04:32:42;;;;;;;5.85;4.85;;;;;;;0.65;65.84;99082.53;7386059;19;19992;-71
2023/04/04 04:35:10;;;;;;;4.22;3.35;;;;;;;0.61;65.40;99086.22;7390532;19;19918;-71
2023/04/04 04:37:38;;;;;;;4.18;3.72;;;;;;;0.63;65.58;99085.22;7389889;19;19918;-71
2023/04/04 04:40:07;;;;;;;4.45;4.05;;;;;;;0.64;65.72;99080.88;7381358;19;20019;-71
2023/04/04 04:42:46;;;;;;;5.28;3.90;;;;;;;0.59;65.75;99075.03;7383992;19;19922;-71
2023/04/04 04:45:16;;;;;;;3.88;3.35;;;;;;;0.60;65.75;99076.72;7386924;19;19922;-71
2023/04/04 04:47:49;;;;;;;3.70;3.05;;;;;;;0.52;65.00;99077.09;7390227;19;19923;-71
2023/04/04 04:50:17;;;;;;;3.85;3.45;;;;;;;0.53;65.53;99084.00;7387580;19;19925;-71
2023/04/04 04:52:50;;;;;;;5.88;3.42;;;;;;;0.57;65.95;99088.13;7387168;19;19922;-71
2023/04/04 04:55:17;;;;;;;5.13;3.53;;;;;;;0.56;66.18;99089.06;7382490;19;19917;-71
2023/04/04 04:57:58;;;;;;;4.05;3.75;;;;;;;0.56;66.37;99081.25;7392879;19;19974;-70
2023/04/04 05:00:26;;;;;;;4.50;2.97;;;;;;;0.51;66.12;99078.00;7384416;19;20395;-71
2023/04/04 05:02:56;;;;;;;3.95;3.65;;;;;;;0.55;66.44;99091.72;7385861;19;19947;-71
2023/04/04 05:05:34;;;;;;;3.85;3.50;;;;;;;0.52;66.65;99090.09;7383172;19;20396;-71
2023/04/04 05:08:05;;;;;;;5.93;3.67;;;;;;;0.57;66.66;99097.69;7391475;19;19922;-71
2023/04/04 05:10:35;;;;;;;5.93;5.47;;;;;;;0.51;66.35;99087.59;7383647;19;21851;-71
2023/04/04 05:13:02;;;;;;;4.55;3.90;;;;;;;0.48;66.61;99091.19;7385570;19;19951;-71
2023/04/04 05:15:36;;;;;;;3.88;3.38;;;;;;;0.53;67.24;99088.38;7385872;19;19974;-71
2023/04/04 05:18:03;;;;;;;4.60;4.28;;;;;;;0.58;67.16;99092.44;7386908;19;19915;-71
2023/04/04 05:20:30;;;;;;;4.07;3.50;;;;;;;0.62;67.65;99091.34;7384366;19;19925;-71
2023/04/04 05:23:00;;;;;;;4.22;3.53;;;;;;;0.61;67.64;99097.47;7383171;19;19926;-71
2023/04/04 05:25:33;;;;;;;5.18;4.68;;;;;;;0.68;67.31;99097.16;7385369;19;19918;-71
2023/04/04 05:28:02;;;;;;;6.05;4.00;;;;;;;0.70;66.97;99093.56;7386271;19;19928;-71
2023/04/04 05:30:31;;;;;;;5.70;4.38;;;;;;;0.72;66.65;99096.09;7385465;19;19935;-70
2023/04/04 05:33:15;;;;;;;4.45;4.05;;;;;;;0.70;65.33;99096.16;7385453;19;19961;-70
2023/04/04 05:35:48;;;;;;;4.18;3.78;;;;;;;0.75;65.24;99104.59;7380086;19;20326;-70
2023/04/04 05:38:16;;;;;;;4.95;4.22;;;;;;;0.80;65.68;99096.56;7387461;19;19938;-72
2023/04/04 05:40:46;;;;;;;4.70;4.03;;;;;;;0.74;65.81;99102.94;7384617;19;19914;-69
2023/04/04 05:43:13;;;;;;;3.67;3.30;;;;;;;0.80;66.20;99102.63;7384702;19;19987;-69
2023/04/04 05:45:52;;;;;;;4.78;4.10;;;;;;;0.94;66.11;99107.13;7385178;19;19922;-69
2023/04/04 05:48:20;;;;;;;3.78;3.08;;;;;;;1.07;66.47;99113.41;7384162;19;19939;-70
2023/04/04 05:50:49;;;;;;;6.65;4.22;;;;;;;1.14;65.43;99100.06;7384600;19;19996;-69
2023/04/04 05:53:21;;;;;;;5.28;3.95;;;;;;;1.24;65.15;99102.13;7378067;19;19926;-69
2023/04/04 05:55:52;;;;;;;4.32;3.92;;;;;;;1.33;64.79;99115.59;7384033;19;19924;-70
2023/04/04 05:58:21;;;;;;;6.80;4.47;;;;;;;1.34;64.25;99112.06;7380918;19;19926;-69
2023/04/04 06:00:53;;;;;;;4.32;3.92;;;;;;;1.41;64.69;99108.22;7384798;19;19918;-69
2023/04/04 06:03:20;;;;;;;4.28;3.55;;;;;;;1.44;64.62;99108.91;7381467;19;19929;-69
2023/04/04 06:05:51;;;;;;;6.00;4.50;;;;;;;1.51;64.24;99104.22;7376278;19;19922;-69
2023/04/04 06:08:19;;;;;;;5.00;4.15;;;;;;;1.59;64.42;99104.66;7372308;19;19982;-74
2023/04/04 06:10:45;;;;;;;5.55;4.78;;;;;;;1.68;64.46;99111.13;7370177;19;19911;-74
2023/04/04 06:13:12;;;;;;;5.65;5.15;;;;;;;1.77;64.43;99102.00;7373798;19;20268;-74
2023/04/04 06:15:42;;;;;;;4.65;4.25;;;;;;;1.79;63.05;99103.59;7371876;19;19930;-74
2023/04/04 06:18:10;;;;;;;3.50;3.20;;;;;;;1.74;61.22;99105.59;7374620;19;19933;-74
2023/04/04 06:20:37;;;;;;;6.63;4.43;;;;;;;1.85;62.21;99105.03;7375015;19;19918;-74
2023/04/04 06:23:04;;;;;;;5.03;3.85;;;;;;;1.95;61.49;99114.03;7373443;19;19918;-74
2023/04/04 06:25:34;;;;;;;5.38;3.97;;;;;;;2.04;62.03;99118.75;7371388;19;19926;-74
2023/04/04 06:28:02;;;;;;;5.20;4.00;;;;;;;2.06;61.61;99105.63;7370059;19;20458;-74
2023/04/04 06:30:29;;;;;;;5.22;4.72;;;;;;;2.13;61.14;99104.34;7378180;19;19914;-74
2023/04/04 06:32:57;;;;;;;4.47;4.07;;;;;;;2.11;59.47;99108.81;7380134;19;19922;-74
2023/04/04 06:35:27;;;;;;;4.90;4.10;;;;;;;2.14;59.54;99104.28;7377204;19;19918;-74
2023/04/04 06:37:58;;;;;;;3.90;3.15;;;;;;;2.24;59.28;99104.63;7380925;19;19925;-74
2023/04/04 06:40:25;;;;;;;4.30;3.90;;;;;;;2.32;59.30;99094.56;7376324;19;21036;-74
2023/04/04 06:42:56;;;;;;;4.25;3.85;;;;;;;2.39;60.40;99100.28;7375906;19;19990;-74
2023/04/04 06:45:32;;;;;;;4.30;3.97;;;;;;;2.35;58.71;99102.22;7377928;19;19956;-74
2023/04/04 06:47:58;;;;;;;5.10;4.70;;;;;;;2.49;58.25;99098.84;7378050;19;20393;-74
2023/04/04 06:50:29;;;;;;;5.80;3.58;;;;;;;2.58;58.70;99106.16;7378374;19;19982;-74
2023/04/04 06:52:56;;;;;;;3.85;3.45;;;;;;;2.67;59.16;99102.19;7376492;19;19922;-74
2023/04/04 06:55:23;;;;;;;4.68;3.90;;;;;;;2.82;58.69;99105.69;7377731;19;19919;-74
2023/04/04 06:57:50;;;;;;;4.55;3.92;;;;;;;2.85;58.06;99101.13;7381398;19;20347;-74
2023/04/04 07:00:17;;;;;;;6.38;4.50;;;;;;;3.01;58.55;99101.06;7378852;19;19925;-74
2023/04/04 07:02:44;;;;;;;3.65;3.28;;;;;;;3.03;56.02;99100.97;7376567;19;19922;-74
2023/04/04 07:05:13;;;;;;;4.05;3.75;;;;;;;3.20;57.75;99089.50;7384319;19;19948;-74
2023/04/04 07:07:40;;;;;;;3.85;3.25;;;;;;;3.29;55.30;99099.41;7377017;19;19925;-74
2023/04/04 07:10:07;;;;;;;4.15;3.67;;;;;;;3.54;56.26;99093.53;7373404;19;19918;-73
2023/04/04 07:12:33;;;;;;;3.60;3.30;;;;;;;3.53;52.89;99094.50;7380003;19;19923;-73
2023/04/04 07:15:00;;;;;;;4.93;3.10;;;;;;;3.67;55.68;99096.25;7380896;19;19926;-74
2023/04/04 07:17:27;;;;;;;4.97;3.38;;;;;;;3.85;54.65;99089.88;7376726;19;19922;-74
2023/04/04 07:19:54;;;;;;;5.32;3.20;;;;;;;3.83;52.00;99099.59;7377770;19;19924;-74
2023/04/04 07:22:21;;;;;;;2.95;2.67;;;;;;;3.70;50.91;99101.28;7373653;19;19969;-74
2023/04/04 07:24:48;;;;;;;3.72;2.80;;;;;;;3.96;51.35;99099.69;7373317;19;19923;-74
2023/04/04 07:27:15;;;;;;;4.05;2.75;;;;;;;4.24;52.92;99097.91;7383652;19;19926;-74
2023/04/04 07:29:42;;;;;;;3.47;2.60;;;;;;;4.60;50.58;99086.84;7376880;19;19935;-74
2023/04/04 07:32:09;;;;;;;3.25;2.45;;;;;;;4.97;49.86;99092.28;7378058;19;19922;-74
2023/04/04 07:34:36;;;;;;;4.30;4.00;;;;;;;5.33;48.83;99083.69;7375736;19;20292;-74
2023/04/04 07:37:04;;;;;;;3.42;3.15;;;;;;;5.71;48.60;99088.06;7380993;19;19947;-74
2023/04/04 07:39:30;;;;;;;3.65;3.03;;;;;;;6.03;48.05;99090.22;7378563;19;19919;-74
2023/04/04 07:41:57;;;;;;;3.40;2.60;;;;;;;6.20;47.46;99089.88;7376936;19;19928;-74
2023/04/04 07:44:24;;;;;;;4.80;3.33;;;;;;;6.15;46.10;99087.56;7376799;19;19953;-74
2023/04/04 07:46:51;;;;;;;3.15;2.00;;;;;;;6.07;45.10;99087.28;7382215;19;19955;-74
2023/04/04 07:49:34;;;;;;;3.70;2.22;;;;;;;6.27;46.28;99092.91;7377906;19;19923;-74
2023/04/04 07:52:01;;;;;;;3.75;3.15;;;;;;;6.17;43.29;99089.28;7378199;19;20294;-75
2023/04/04 07:54:28;;;;;;;3.58;3.38;;;;;;;6.26;45.71;99093.84;7376245;19;20408;-74
2023/04/04 07:56:54;;;;;;;4.28;2.50;;;;;;;6.42;44.53;99083.06;7379523;19;19919;-74
2023/04/04 07:59:21;;;;;;;6.18;2.03;;;;;;;6.59;44.90;99090.56;7377018;19;19928;-74
2023/04/04 08:01:49;;;;;;;2.95;2.55;;;;;;;6.68;45.39;99089.03;7375839;19;19918;-74
2023/04/04 08:04:16;;;;;;;7.28;2.60;;;;;;;6.74;42.90;99078.03;7378438;19;20348;-74
2023/04/04 08:06:43;;;;;;;5.05;2.45;;;;;;;7.14;44.84;99077.72;7372326;19;19914;-74
2023/04/04 08:09:09;;;;;;;3.15;2.95;;;;;;;7.22;43.38;99081.41;7381369;19;19910;-73
2023/04/04 08:11:36;;;;;;;5.68;3.67;;;;;;;7.17;42.40;99074.84;7377199;19;20253;-73
2023/04/04 08:14:03;;;;;;;4.80;2.10;;;;;;;7.23;42.90;99084.88;7379424;19;19930;-74
2023/04/04 08:16:30;;;;;;;4.13;2.20;;;;;;;7.10;43.13;99084.97;7381485;19;19942;-74
2023/04/04 08:18:57;;;;;;;4.57;3.17;;;;;;;7.21;44.10;99077.13;7388983;19;19918;-75
2023/04/04 08:21:26;;;;;;;4.63;2.20;;;;;;;7.38;42.68;99077.63;7383502;19;20635;-73
2023/04/04 08:23:53;;;;;;;2.97;2.72;;;;;;;7.71;42.00;99079.41;7366449;19;19915;-73
2023/04/04 08:26:20;;;;;;;4.18;2.40;;;;;;;7.77;41.77;99081.59;7385019;19;19939;-73
2023/04/04 08:28:47;;;;;;;3.92;3.63;;;;;;;7.57;39.63;99077.84;7384842;19;20278;-74
2023/04/04 08:31:14;;;;;;;3.08;2.13;;;;;;;7.75;43.18;99082.66;7390121;19;19918;-73
2023/04/04 08:33:41;;;;;;;3.22;2.72;;;;;;;7.76;41.55;99082.53;7380174;19;20316;-73
2023/04/04 08:36:13;;;;;;;2.80;2.13;;;;;;;7.85;41.70;99073.91;7389269;19;19914;-74
2023/04/04 08:38:40;;;;;;;3.70;3.10;;;;;;;7.44;42.17;99072.69;7385007;19;19952;-74
2023/04/04 08:41:08;;;;;;;2.28;2.08;;;;;;;7.45;43.07;99077.03;7387680;19;19918;-73
2023/04/04 08:43:37;;;;;;;3.05;2.60;;;;;;;7.57;43.10;99077.03;7380336;19;19918;-74
2023/04/04 08:46:04;;;;;;;4.30;2.22;;;;;;;7.72;41.64;99077.63;7389091;19;19947;-73
2023/04/04 08:48:32;;;;;;;2.88;2.67;;;;;;;7.77;40.41;99078.94;7383017;19;19915;-73
2023/04/04 08:50:59;;;;;;;2.63;1.98;;;;;;;7.85;41.52;99079.19;7387020;19;19927;-73
2023/04/04 08:53:28;;;;;;;2.42;2.17;;;;;;;7.74;38.13;99083.59;7380755;19;19922;-73
2023/04/04 08:55:56;;;;;;;2.25;2.00;;;;;;;8.06;40.13;99068.72;7387752;19;19930;-73
2023/04/04 08:58:23;;;;;;;2.65;1.83;;;;;;;8.36;41.04;99070.69;7386804;19;19922;-73
2023/04/04 09:00:54;;;;;;;1.77;1.48;;;;;;;8.60;39.60;99074.13;7379050;19;20343;-74
2023/04/04 09:03:26;;;;;;;2.42;2.20;;;;;;;8.76;39.74;99071.88;7385653;19;20012;-74
2023/04/04 09:05:54;;;;;;;4.43;2.22;;;;;;;8.87;40.09;99066.53;7384579;19;19933;-74
2023/04/04 09:08:23;;;;;;;2.30;1.83;;;;;;;8.90;39.47;99068.94;7388589;19;19926;-74
2023/04/04 09:10:51;;;;;;;2.75;2.22;;;;;;;8.92;38.97;99077.56;7376913;19;19914;-74
2023/04/04 09:13:18;;;;;;;3.97;2.28;;;;;;;8.83;39.13;99077.50;7385669;19;19919;-73
2023/04/04 09:15:47;;;;;;;2.83;2.58;;;;;;;8.92;36.98;99074.91;7383479;19;19918;-74
2023/04/04 09:18:15;;;;;;;3.50;3.15;;;;;;;9.07;34.86;99070.16;7393555;19;20441;-73
2023/04/04 09:20:49;;;;;;;3.67;2.35;;;;;;;9.21;38.52;99082.19;7379626;19;19939;-74
2023/04/04 09:23:19;;;;;;;2.33;1.73;;;;;;;9.18;36.48;99074.53;7378568;19;19926;-74
2023/04/04 09:25:47;;;;;;;4.70;4.30;;;;;;;8.98;37.29;99076.22;7380292;19;20318;-75
2023/04/04 09:28:20;;;;;;;3.55;2.47;;;;;;;8.95;39.80;99079.97;7388428;19;19918;-73
2023/04/04 09:30:48;;;;;;;3.15;2.08;;;;;;;8.47;36.66;99069.00;7380917;19;21572;-73
2023/04/04 09:33:16;;;;;;;3.22;2.28;;;;;;;8.45;39.53;99079.69;7382249;19;19914;-74
2023/04/04 09:35:45;;;;;;;3.97;2.92;;;;;;;8.37;38.04;99076.78;7383500;19;20290;-74
2023/04/04 09:38:14;;;;;;;3.55;2.55;;;;;;;8.25;36.10;99068.09;7382859;19;19926;-75
2023/04/04 09:40:41;;;;;;;3.38;2.17;;;;;;;8.53;39.16;99069.34;7375622;19;19918;-75
2023/04/04 09:43:10;;;;;;;3.20;2.55;;;;;;;8.63;38.12;99076.50;7382291;19;19910;-75
2023/04/04 09:45:43;;;;;;;2.78;2.33;;;;;;;8.60;40.15;99077.59;7383379;19;19915;-75
2023/04/04 09:48:11;;;;;;;3.55;2.38;;;;;;;8.26;38.03;99072.38;7384553;19;19935;-74
2023/04/04 09:50:45;;;;;;;3.55;2.10;;;;;;;7.96;37.38;99083.59;7381975;19;19967;-75
2023/04/04 09:53:18;;;;;;;3.17;2.40;;;;;;;7.86;39.92;99087.91;7381264;19;19926;-75
2023/04/04 09:55:50;;;;;;;3.42;2.40;;;;;;;7.76;39.54;99082.53;7378898;19;19926;-75
2023/04/04 09:58:20;;;;;;;2.67;2.40;;;;;;;8.01;41.82;99083.25;7386045;19;19925;-75
2023/04/04 10:00:47;;;;;;;3.90;2.72;;;;;;;8.29;37.09;99077.44;7382658;19;19922;-74
2023/04/04 10:03:15;;;;;;;3.95;2.58;;;;;;;8.71;38.51;99076.69;7385883;19;19926;-74
2023/04/04 10:05:43;;;;;;;4.57;2.88;;;;;;;9.32;38.67;99068.06;7383729;19;19925;-74
2023/04/04 10:08:17;;;;;;;5.45;3.67;;;;;;;9.66;37.31;99071.31;7384366;19;19934;-76
2023/04/04 10:10:47;;;;;;;3.17;2.10;;;;;;;9.95;36.12;99060.81;7381017;19;19925;-74
2023/04/04 10:13:35;;;;;;;3.55;2.15;;;;;;;9.95;36.88;99068.75;7381426;19;19919;-75
2023/04/04 10:16:03;;;;;;;4.68;2.33;;;;;;;10.28;34.84;99064.16;7385638;19;20000;-75
2023/04/04 10:18:32;;;;;;;3.25;2.95;;;;;;;10.27;35.72;99055.38;7384935;19;20269;-75
2023/04/04 10:21:01;;;;;;;4.40;2.33;;;;;;;10.52;35.36;99059.28;7387461;19;19963;-76
2023/04/04 10:23:41;;;;;;;3.42;2.13;;;;;;;10.53;35.41;99058.34;7374167;19;20348;-75
2023/04/04 10:26:08;;;;;;;3.92;2.20;;;;;;;10.51;35.17;99057.63;7379760;19;19994;-76
2023/04/04 10:28:35;;;;;;;3.30;1.70;;;;;;;10.48;35.35;99059.72;7380044;19;19918;-75
2023/04/04 10:31:16;;;;;;;3.47;2.33;;;;;;;10.42;35.42;99049.69;7381833;19;19919;-75
2023/04/04 10:34:00;;;;;;;4.30;2.25;;;;;;;10.15;35.01;99050.31;7377143;19;19943;-74
2023/04/04 10:36:30;;;;;;;3.58;2.35;;;;;;;10.18;35.10;99047.41;7383118;19;19921;-74
2023/04/04 10:39:03;;;;;;;3.33;2.45;;;;;;;9.82;34.85;99044.38;7378684;19;19933;-74
2023/04/04 10:41:31;;;;;;;2.40;2.20;;;;;;;10.50;36.06;99047.19;7378664;19;19925;-74
2023/04/04 10:44:00;;;;;;;4.47;1.92;;;;;;;11.31;35.67;99050.28;7380950;19;19929;-75
2023/04/04 10:46:29;;;;;;;2.63;1.90;;;;;;;11.82;34.45;99053.44;7381980;19;19922;-74
2023/04/04 10:48:59;;;;;;;2.20;1.98;;;;;;;11.89;31.49;99048.44;7382284;19;19918;-74
2023/04/04 10:51:26;;;;;;;4.57;3.45;;;;;;;11.86;30.66;99044.25;7384520;19;20270;-74
2023/04/04 10:53:53;;;;;;;2.75;1.83;;;;;;;12.22;32.60;99036.38;7377894;19;19918;-75
2023/04/04 10:56:21;;;;;;;2.70;2.00;;;;;;;12.14;30.17;99038.91;7385859;19;19962;-74
2023/04/04 10:58:48;;;;;;;2.78;1.83;;;;;;;12.20;31.46;99028.56;7379657;19;20279;-75
2023/04/04 11:01:19;;;;;;;2.25;1.80;;;;;;;12.40;32.30;99036.38;7383936;19;19957;-73
2023/04/04 11:04:14;;;;;;;3.58;1.80;;;;;;;12.32;30.39;99028.31;7374260;19;19946;-74
2023/04/04 11:07:07;;;;;;;4.05;1.80;;;;;;;12.25;31.36;99030.75;7380775;19;19926;-75
2023/04/04 11:09:53;;;;;;;3.95;2.08;;;;;;;12.51;31.69;99030.84;7377262;19;20918;-75
2023/04/04 11:12:22;;;;;;;4.07;2.10;;;;;;;12.94;32.54;99023.91;7379443;19;20374;-75
2023/04/04 11:15:02;;;;;;;3.35;3.10;;;;;;;13.15;28.49;99016.41;7377661;19;20278;-75
2023/04/04 11:17:47;;;;;;;3.58;2.08;;;;;;;14.10;29.24;99020.84;7384250;19;20351;-75
2023/04/04 11:20:16;;;;;;;4.40;3.65;;;;;;;14.75;27.77;99018.31;7380559;19;20305;-73
2023/04/04 11:22:44;;;;;;;3.42;2.05;;;;;;;15.74;27.50;99006.44;7376232;19;20365;-73
2023/04/04 11:25:23;;;;;;;2.67;2.10;;;;;;;16.27;28.24;99011.19;7380703;19;19935;-74
2023/04/04 11:27:53;;;;;;;2.63;1.70;;;;;;;17.26;26.11;99012.06;7380672;19;20355;-73
2023/04/04 11:30:21;;;;;;;2.20;1.73;;;;;;;16.99;27.02;99005.50;7383988;19;19918;-75
2023/04/04 11:32:48;;;;;;;3.47;2.00;;;;;;;17.01;25.29;99006.97;7376317;19;19919;-74
2023/04/04 11:35:31;;;;;;;2.97;2.17;;;;;;;17.36;25.12;99001.09;7380544;19;19918;-74
2023/04/04 11:37:59;;;;;;;2.83;1.77;;;;;;;16.39;22.50;99009.78;7380685;19;19930;-75
2023/04/04 11:40:38;;;;;;;6.82;2.33;;;;;;;15.54;27.00;99011.34;7382597;19;19919;-75
2023/04/04 11:43:11;;;;;;;4.20;2.33;;;;;;;15.13;25.56;99003.44;7379845;19;19926;-73
2023/04/04 11:45:45;;;;;;;3.47;2.25;;;;;;;14.65;28.85;99004.31;7382898;19;19914;-73
2023/04/04 11:48:16;;;;;;;5.28;4.22;;;;;;;14.82;27.56;99005.13;7385359;19;20253;-75
2023/04/04 11:50:48;;;;;;;2.67;2.38;;;;;;;14.53;26.64;99002.97;7382799;19;19929;-74
2023/04/04 11:53:16;;;;;;;3.50;3.17;;;;;;;15.09;27.87;99001.31;7378796;19;20264;-75